sensor_id;sensor_type;location;lat;lon;timestamp;P1;durP1;ratioP1;P2;durP2;ratioP2
13580;SDS011;6861;46.170;7.222;2023-06-22T00:01:21;12.55;;;4.10;;
13580;SDS011;6861;46.170;7.222;2023-06-22T00:03:50;8.20;;;4.05;;
13580;SDS011;6861;46.170;7.222;2023-06-22T00:06:18;14.15;;;4.35;;
13580;SDS011;6861;46.170;7.222;2023-06-22T00:08:46;15.68;;;4.72;;
13580;SDS011;6861;46.170;7.222;2023-06-22T00:11:16;8.93;;;4.25;;
13580;SDS011;6861;46.170;7.222;2023-06-22T00:13:44;16.23;;;4.68;;
13580;SDS011;6861;46.170;7.222;2023-06-22T00:16:13;13.10;;;4.47;;
13580;SDS011;6861;46.170;7.222;2023-06-22T00:18:42;12.55;;;4.30;;
13580;SDS011;6861;46.170;7.222;2023-06-22T00:21:13;13.10;;;4.15;;
13580;SDS011;6861;46.170;7.222;2023-06-22T00:23:42;13.27;;;4.20;;
13580;SDS011;6861;46.170;7.222;2023-06-22T00:26:10;10.35;;;3.85;;
13580;SDS011;6861;46.170;7.222;2023-06-22T00:28:40;15.63;;;4.20;;
13580;SDS011;6861;46.170;7.222;2023-06-22T00:31:09;15.13;;;4.22;;
13580;SDS011;6861;46.170;7.222;2023-06-22T00:33:37;13.25;;;4.03;;
13580;SDS011;6861;46.170;7.222;2023-06-22T00:36:05;12.50;;;3.80;;
13580;SDS011;6861;46.170;7.222;2023-06-22T00:38:34;12.82;;;4.53;;
13580;SDS011;6861;46.170;7.222;2023-06-22T00:41:06;13.15;;;4.60;;
13580;SDS011;6861;46.170;7.222;2023-06-22T00:43:35;11.70;;;5.00;;
13580;SDS011;6861;46.170;7.222;2023-06-22T00:46:05;13.77;;;4.68;;
13580;SDS011;6861;46.170;7.222;2023-06-22T00:48:33;14.93;;;4.40;;
13580;SDS011;6861;46.170;7.222;2023-06-22T00:51:03;11.85;;;4.38;;
13580;SDS011;6861;46.170;7.222;2023-06-22T00:53:31;15.05;;;4.97;;
13580;SDS011;6861;46.170;7.222;2023-06-22T00:56:01;14.52;;;4.60;;
13580;SDS011;6861;46.170;7.222;2023-06-22T00:58:30;17.58;;;5.03;;
13580;SDS011;6861;46.170;7.222;2023-06-22T01:00:59;11.75;;;4.57;;
13580;SDS011;6861;46.170;7.222;2023-06-22T01:03:30;12.60;;;4.32;;
13580;SDS011;6861;46.170;7.222;2023-06-22T01:06:00;10.77;;;4.35;;
13580;SDS011;6861;46.170;7.222;2023-06-22T01:08:37;11.68;;;4.13;;
13580;SDS011;6861;46.170;7.222;2023-06-22T01:11:14;13.55;;;4.20;;
13580;SDS011;6861;46.170;7.222;2023-06-22T01:13:48;14.40;;;4.63;;
13580;SDS011;6861;46.170;7.222;2023-06-22T01:16:20;12.48;;;4.55;;
13580;SDS011;6861;46.170;7.222;2023-06-22T01:18:54;11.07;;;4.47;;
13580;SDS011;6861;46.170;7.222;2023-06-22T01:21:26;13.98;;;4.43;;
13580;SDS011;6861;46.170;7.222;2023-06-22T01:24:01;15.55;;;4.80;;
13580;SDS011;6861;46.170;7.222;2023-06-22T01:26:38;10.57;;;3.97;;
13580;SDS011;6861;46.170;7.222;2023-06-22T01:29:12;9.63;;;3.90;;
13580;SDS011;6861;46.170;7.222;2023-06-22T01:31:42;11.57;;;4.43;;
13580;SDS011;6861;46.170;7.222;2023-06-22T01:34:12;12.93;;;4.10;;
13580;SDS011;6861;46.170;7.222;2023-06-22T01:36:41;13.70;;;4.30;;
13580;SDS011;6861;46.170;7.222;2023-06-22T01:39:11;9.55;;;3.92;;
13580;SDS011;6861;46.170;7.222;2023-06-22T01:41:40;16.45;;;4.05;;
13580;SDS011;6861;46.170;7.222;2023-06-22T01:44:11;11.27;;;4.68;;
13580;SDS011;6861;46.170;7.222;2023-06-22T01:46:40;9.57;;;4.45;;
13580;SDS011;6861;46.170;7.222;2023-06-22T01:49:08;10.90;;;4.32;;
13580;SDS011;6861;46.170;7.222;2023-06-22T01:51:37;11.52;;;4.50;;
13580;SDS011;6861;46.170;7.222;2023-06-22T01:54:06;8.88;;;4.32;;
13580;SDS011;6861;46.170;7.222;2023-06-22T01:56:35;12.98;;;4.68;;
13580;SDS011;6861;46.170;7.222;2023-06-22T01:59:05;12.50;;;4.20;;
13580;SDS011;6861;46.170;7.222;2023-06-22T02:01:42;9.23;;;4.10;;
13580;SDS011;6861;46.170;7.222;2023-06-22T02:04:13;13.30;;;4.70;;
13580;SDS011;6861;46.170;7.222;2023-06-22T02:06:47;9.82;;;4.18;;
13580;SDS011;6861;46.170;7.222;2023-06-22T02:09:19;8.40;;;3.85;;
13580;SDS011;6861;46.170;7.222;2023-06-22T02:11:50;14.05;;;4.30;;
13580;SDS011;6861;46.170;7.222;2023-06-22T02:14:21;10.35;;;3.85;;
13580;SDS011;6861;46.170;7.222;2023-06-22T02:16:52;11.23;;;3.90;;
13580;SDS011;6861;46.170;7.222;2023-06-22T02:19:22;12.85;;;4.18;;
13580;SDS011;6861;46.170;7.222;2023-06-22T02:21:52;9.40;;;3.92;;
13580;SDS011;6861;46.170;7.222;2023-06-22T02:24:20;11.48;;;3.65;;
13580;SDS011;6861;46.170;7.222;2023-06-22T02:26:50;12.60;;;4.32;;
13580;SDS011;6861;46.170;7.222;2023-06-22T02:29:18;16.13;;;4.70;;
13580;SDS011;6861;46.170;7.222;2023-06-22T02:31:46;13.23;;;4.40;;
13580;SDS011;6861;46.170;7.222;2023-06-22T02:34:16;12.63;;;4.50;;
13580;SDS011;6861;46.170;7.222;2023-06-22T02:36:45;15.57;;;4.13;;
13580;SDS011;6861;46.170;7.222;2023-06-22T02:39:18;11.85;;;4.20;;
13580;SDS011;6861;46.170;7.222;2023-06-22T02:41:48;10.70;;;4.20;;
13580;SDS011;6861;46.170;7.222;2023-06-22T02:44:17;13.65;;;4.28;;
13580;SDS011;6861;46.170;7.222;2023-06-22T02:46:45;9.55;;;4.15;;
13580;SDS011;6861;46.170;7.222;2023-06-22T02:49:15;8.70;;;4.07;;
13580;SDS011;6861;46.170;7.222;2023-06-22T02:51:45;12.90;;;4.25;;
13580;SDS011;6861;46.170;7.222;2023-06-22T02:54:14;15.77;;;4.50;;
13580;SDS011;6861;46.170;7.222;2023-06-22T02:56:43;10.90;;;4.40;;
13580;SDS011;6861;46.170;7.222;2023-06-22T02:59:11;12.20;;;4.32;;
13580;SDS011;6861;46.170;7.222;2023-06-22T03:01:39;16.40;;;4.53;;
13580;SDS011;6861;46.170;7.222;2023-06-22T03:04:07;11.13;;;4.10;;
13580;SDS011;6861;46.170;7.222;2023-06-22T03:06:38;10.43;;;4.53;;
13580;SDS011;6861;46.170;7.222;2023-06-22T03:09:07;12.68;;;4.15;;
13580;SDS011;6861;46.170;7.222;2023-06-22T03:11:35;13.20;;;3.67;;
13580;SDS011;6861;46.170;7.222;2023-06-22T03:14:03;9.82;;;4.07;;
13580;SDS011;6861;46.170;7.222;2023-06-22T03:16:32;10.18;;;3.75;;
13580;SDS011;6861;46.170;7.222;2023-06-22T03:19:00;9.20;;;3.92;;
13580;SDS011;6861;46.170;7.222;2023-06-22T03:21:28;9.98;;;4.82;;
13580;SDS011;6861;46.170;7.222;2023-06-22T03:23:59;11.02;;;4.47;;
13580;SDS011;6861;46.170;7.222;2023-06-22T03:26:28;13.10;;;4.03;;
13580;SDS011;6861;46.170;7.222;2023-06-22T03:28:56;13.23;;;4.13;;
13580;SDS011;6861;46.170;7.222;2023-06-22T03:31:24;9.80;;;4.03;;
13580;SDS011;6861;46.170;7.222;2023-06-22T03:33:53;11.63;;;4.03;;
13580;SDS011;6861;46.170;7.222;2023-06-22T03:36:22;11.20;;;4.32;;
13580;SDS011;6861;46.170;7.222;2023-06-22T03:38:51;13.15;;;4.30;;
13580;SDS011;6861;46.170;7.222;2023-06-22T03:41:20;13.82;;;4.03;;
13580;SDS011;6861;46.170;7.222;2023-06-22T03:43:48;14.52;;;4.28;;
13580;SDS011;6861;46.170;7.222;2023-06-22T03:46:17;12.23;;;4.25;;
13580;SDS011;6861;46.170;7.222;2023-06-22T03:48:46;11.63;;;4.50;;
13580;SDS011;6861;46.170;7.222;2023-06-22T03:51:14;15.63;;;4.75;;
13580;SDS011;6861;46.170;7.222;2023-06-22T03:53:43;17.10;;;4.65;;
13580;SDS011;6861;46.170;7.222;2023-06-22T03:56:11;11.88;;;3.90;;
13580;SDS011;6861;46.170;7.222;2023-06-22T03:58:40;17.73;;;4.95;;
13580;SDS011;6861;46.170;7.222;2023-06-22T04:01:11;10.82;;;3.78;;
13580;SDS011;6861;46.170;7.222;2023-06-22T04:03:40;17.05;;;4.35;;
13580;SDS011;6861;46.170;7.222;2023-06-22T04:06:09;16.60;;;4.65;;
13580;SDS011;6861;46.170;7.222;2023-06-22T04:08:37;14.77;;;4.22;;
13580;SDS011;6861;46.170;7.222;2023-06-22T04:11:05;19.27;;;4.90;;
13580;SDS011;6861;46.170;7.222;2023-06-22T04:13:33;10.68;;;4.25;;
13580;SDS011;6861;46.170;7.222;2023-06-22T04:16:03;12.73;;;4.32;;
13580;SDS011;6861;46.170;7.222;2023-06-22T04:18:31;17.05;;;4.20;;
13580;SDS011;6861;46.170;7.222;2023-06-22T04:21:00;14.35;;;4.60;;
13580;SDS011;6861;46.170;7.222;2023-06-22T04:23:30;16.40;;;4.60;;
13580;SDS011;6861;46.170;7.222;2023-06-22T04:25:58;11.57;;;4.35;;
13580;SDS011;6861;46.170;7.222;2023-06-22T04:28:27;12.50;;;4.00;;
13580;SDS011;6861;46.170;7.222;2023-06-22T04:30:55;13.90;;;4.32;;
13580;SDS011;6861;46.170;7.222;2023-06-22T04:33:26;10.35;;;4.25;;
13580;SDS011;6861;46.170;7.222;2023-06-22T04:35:55;10.88;;;4.07;;
13580;SDS011;6861;46.170;7.222;2023-06-22T04:38:24;14.25;;;4.38;;
13580;SDS011;6861;46.170;7.222;2023-06-22T04:40:52;11.55;;;3.97;;
13580;SDS011;6861;46.170;7.222;2023-06-22T04:43:21;15.23;;;4.70;;
13580;SDS011;6861;46.170;7.222;2023-06-22T04:45:49;17.70;;;4.43;;
13580;SDS011;6861;46.170;7.222;2023-06-22T04:48:19;12.18;;;4.20;;
13580;SDS011;6861;46.170;7.222;2023-06-22T04:50:48;12.15;;;4.07;;
13580;SDS011;6861;46.170;7.222;2023-06-22T04:53:17;16.13;;;4.45;;
13580;SDS011;6861;46.170;7.222;2023-06-22T04:55:45;17.15;;;4.75;;
13580;SDS011;6861;46.170;7.222;2023-06-22T04:58:15;15.95;;;3.83;;
13580;SDS011;6861;46.170;7.222;2023-06-22T05:00:46;11.55;;;4.07;;
13580;SDS011;6861;46.170;7.222;2023-06-22T05:03:18;16.58;;;4.95;;
13580;SDS011;6861;46.170;7.222;2023-06-22T05:05:46;13.82;;;4.80;;
13580;SDS011;6861;46.170;7.222;2023-06-22T05:08:16;12.15;;;4.10;;
13580;SDS011;6861;46.170;7.222;2023-06-22T05:10:45;9.45;;;4.00;;
13580;SDS011;6861;46.170;7.222;2023-06-22T05:13:30;12.43;;;4.43;;
13580;SDS011;6861;46.170;7.222;2023-06-22T05:15:58;14.75;;;4.55;;
13580;SDS011;6861;46.170;7.222;2023-06-22T05:18:29;14.18;;;4.63;;
13580;SDS011;6861;46.170;7.222;2023-06-22T05:21:00;11.98;;;4.82;;
13580;SDS011;6861;46.170;7.222;2023-06-22T05:23:29;16.65;;;4.47;;
13580;SDS011;6861;46.170;7.222;2023-06-22T05:25:58;11.70;;;4.40;;
13580;SDS011;6861;46.170;7.222;2023-06-22T05:28:26;18.38;;;4.43;;
13580;SDS011;6861;46.170;7.222;2023-06-22T05:30:54;10.82;;;4.60;;
13580;SDS011;6861;46.170;7.222;2023-06-22T05:33:22;14.48;;;4.75;;
13580;SDS011;6861;46.170;7.222;2023-06-22T05:35:51;11.82;;;4.22;;
13580;SDS011;6861;46.170;7.222;2023-06-22T05:38:20;16.05;;;4.25;;
13580;SDS011;6861;46.170;7.222;2023-06-22T05:40:48;16.40;;;5.03;;
13580;SDS011;6861;46.170;7.222;2023-06-22T05:43:17;16.35;;;4.53;;
13580;SDS011;6861;46.170;7.222;2023-06-22T05:45:45;16.38;;;4.60;;
13580;SDS011;6861;46.170;7.222;2023-06-22T05:48:13;14.27;;;4.22;;
13580;SDS011;6861;46.170;7.222;2023-06-22T05:50:41;14.63;;;4.30;;
13580;SDS011;6861;46.170;7.222;2023-06-22T05:53:09;21.95;;;4.93;;
13580;SDS011;6861;46.170;7.222;2023-06-22T05:55:39;14.15;;;4.15;;
13580;SDS011;6861;46.170;7.222;2023-06-22T05:58:07;13.25;;;4.28;;
13580;SDS011;6861;46.170;7.222;2023-06-22T06:00:36;15.95;;;4.50;;
13580;SDS011;6861;46.170;7.222;2023-06-22T06:03:04;17.50;;;4.65;;
13580;SDS011;6861;46.170;7.222;2023-06-22T06:05:33;17.40;;;4.97;;
13580;SDS011;6861;46.170;7.222;2023-06-22T06:08:02;12.45;;;4.47;;
13580;SDS011;6861;46.170;7.222;2023-06-22T06:10:32;11.27;;;3.88;;
13580;SDS011;6861;46.170;7.222;2023-06-22T06:13:02;14.57;;;4.90;;
13580;SDS011;6861;46.170;7.222;2023-06-22T06:15:31;17.73;;;5.30;;
13580;SDS011;6861;46.170;7.222;2023-06-22T06:17:59;15.18;;;4.80;;
13580;SDS011;6861;46.170;7.222;2023-06-22T06:20:29;12.00;;;4.93;;
13580;SDS011;6861;46.170;7.222;2023-06-22T06:22:57;11.48;;;4.82;;
13580;SDS011;6861;46.170;7.222;2023-06-22T06:25:26;14.90;;;5.13;;
13580;SDS011;6861;46.170;7.222;2023-06-22T06:27:54;12.02;;;5.15;;
13580;SDS011;6861;46.170;7.222;2023-06-22T06:30:24;12.38;;;5.43;;
13580;SDS011;6861;46.170;7.222;2023-06-22T06:32:52;14.52;;;5.05;;
13580;SDS011;6861;46.170;7.222;2023-06-22T06:35:20;12.57;;;5.13;;
13580;SDS011;6861;46.170;7.222;2023-06-22T06:37:49;14.35;;;5.13;;
13580;SDS011;6861;46.170;7.222;2023-06-22T06:40:18;14.07;;;5.28;;
13580;SDS011;6861;46.170;7.222;2023-06-22T06:42:47;13.77;;;4.97;;
13580;SDS011;6861;46.170;7.222;2023-06-22T06:45:17;15.48;;;5.03;;
13580;SDS011;6861;46.170;7.222;2023-06-22T06:47:48;13.68;;;5.13;;
13580;SDS011;6861;46.170;7.222;2023-06-22T06:50:17;12.68;;;4.95;;
13580;SDS011;6861;46.170;7.222;2023-06-22T06:52:45;17.70;;;5.88;;
13580;SDS011;6861;46.170;7.222;2023-06-22T06:55:14;15.07;;;5.30;;
13580;SDS011;6861;46.170;7.222;2023-06-22T06:57:42;14.95;;;5.53;;
13580;SDS011;6861;46.170;7.222;2023-06-22T07:00:14;19.17;;;5.35;;
13580;SDS011;6861;46.170;7.222;2023-06-22T07:02:43;13.40;;;5.57;;
13580;SDS011;6861;46.170;7.222;2023-06-22T07:05:16;20.63;;;6.20;;
13580;SDS011;6861;46.170;7.222;2023-06-22T07:07:44;14.07;;;5.45;;
13580;SDS011;6861;46.170;7.222;2023-06-22T07:10:13;19.10;;;6.03;;
13580;SDS011;6861;46.170;7.222;2023-06-22T07:12:42;12.60;;;5.35;;
13580;SDS011;6861;46.170;7.222;2023-06-22T07:15:11;15.82;;;5.28;;
13580;SDS011;6861;46.170;7.222;2023-06-22T07:17:39;15.00;;;5.68;;
13580;SDS011;6861;46.170;7.222;2023-06-22T07:20:09;14.25;;;5.00;;
13580;SDS011;6861;46.170;7.222;2023-06-22T07:22:40;14.75;;;5.20;;
13580;SDS011;6861;46.170;7.222;2023-06-22T07:25:11;14.73;;;5.65;;
13580;SDS011;6861;46.170;7.222;2023-06-22T07:27:44;11.98;;;5.30;;
13580;SDS011;6861;46.170;7.222;2023-06-22T07:30:13;12.05;;;5.28;;
13580;SDS011;6861;46.170;7.222;2023-06-22T07:32:41;17.60;;;5.85;;
13580;SDS011;6861;46.170;7.222;2023-06-22T07:35:09;16.20;;;5.60;;
13580;SDS011;6861;46.170;7.222;2023-06-22T07:37:37;14.82;;;5.18;;
13580;SDS011;6861;46.170;7.222;2023-06-22T07:40:08;10.32;;;4.75;;
13580;SDS011;6861;46.170;7.222;2023-06-22T07:42:36;14.27;;;5.25;;
13580;SDS011;6861;46.170;7.222;2023-06-22T07:45:06;15.68;;;5.60;;
13580;SDS011;6861;46.170;7.222;2023-06-22T07:47:35;14.38;;;5.05;;
13580;SDS011;6861;46.170;7.222;2023-06-22T07:50:04;14.40;;;5.68;;
13580;SDS011;6861;46.170;7.222;2023-06-22T07:52:33;12.80;;;5.30;;
13580;SDS011;6861;46.170;7.222;2023-06-22T07:55:03;16.23;;;5.57;;
13580;SDS011;6861;46.170;7.222;2023-06-22T07:57:31;10.45;;;5.45;;
13580;SDS011;6861;46.170;7.222;2023-06-22T08:00:01;13.25;;;5.68;;
13580;SDS011;6861;46.170;7.222;2023-06-22T08:02:37;15.50;;;5.75;;
13580;SDS011;6861;46.170;7.222;2023-06-22T08:05:06;15.68;;;5.68;;
13580;SDS011;6861;46.170;7.222;2023-06-22T08:07:47;13.55;;;5.30;;
13580;SDS011;6861;46.170;7.222;2023-06-22T08:10:17;17.00;;;5.85;;
13580;SDS011;6861;46.170;7.222;2023-06-22T08:12:45;14.18;;;5.15;;
13580;SDS011;6861;46.170;7.222;2023-06-22T08:15:13;13.27;;;5.10;;
13580;SDS011;6861;46.170;7.222;2023-06-22T08:17:42;12.77;;;5.40;;
13580;SDS011;6861;46.170;7.222;2023-06-22T08:20:11;11.05;;;4.85;;
13580;SDS011;6861;46.170;7.222;2023-06-22T08:22:40;13.82;;;5.15;;
13580;SDS011;6861;46.170;7.222;2023-06-22T08:25:09;15.45;;;5.18;;
13580;SDS011;6861;46.170;7.222;2023-06-22T08:27:39;15.20;;;5.40;;
13580;SDS011;6861;46.170;7.222;2023-06-22T08:30:09;16.02;;;5.72;;
13580;SDS011;6861;46.170;7.222;2023-06-22T08:32:38;15.23;;;5.25;;
13580;SDS011;6861;46.170;7.222;2023-06-22T08:35:06;13.00;;;5.68;;
13580;SDS011;6861;46.170;7.222;2023-06-22T08:37:36;19.60;;;5.72;;
13580;SDS011;6861;46.170;7.222;2023-06-22T08:40:07;18.13;;;5.70;;
13580;SDS011;6861;46.170;7.222;2023-06-22T08:42:39;12.82;;;5.78;;
13580;SDS011;6861;46.170;7.222;2023-06-22T08:45:08;15.38;;;5.32;;
13580;SDS011;6861;46.170;7.222;2023-06-22T08:47:37;16.80;;;5.60;;
13580;SDS011;6861;46.170;7.222;2023-06-22T08:50:08;13.07;;;5.47;;
13580;SDS011;6861;46.170;7.222;2023-06-22T08:52:37;12.73;;;5.35;;
13580;SDS011;6861;46.170;7.222;2023-06-22T08:55:08;19.88;;;5.53;;
13580;SDS011;6861;46.170;7.222;2023-06-22T08:57:38;16.73;;;5.30;;
13580;SDS011;6861;46.170;7.222;2023-06-22T09:00:07;13.48;;;5.07;;
13580;SDS011;6861;46.170;7.222;2023-06-22T09:02:44;13.48;;;5.05;;
13580;SDS011;6861;46.170;7.222;2023-06-22T09:05:12;18.30;;;5.28;;
13580;SDS011;6861;46.170;7.222;2023-06-22T09:07:41;12.68;;;5.20;;
13580;SDS011;6861;46.170;7.222;2023-06-22T09:10:09;13.57;;;5.20;;
13580;SDS011;6861;46.170;7.222;2023-06-22T09:12:39;14.38;;;5.22;;
13580;SDS011;6861;46.170;7.222;2023-06-22T09:15:09;14.85;;;5.38;;
13580;SDS011;6861;46.170;7.222;2023-06-22T09:17:42;14.77;;;5.68;;
13580;SDS011;6861;46.170;7.222;2023-06-22T09:20:13;16.05;;;5.47;;
13580;SDS011;6861;46.170;7.222;2023-06-22T09:22:42;13.18;;;4.72;;
13580;SDS011;6861;46.170;7.222;2023-06-22T09:25:10;13.40;;;5.28;;
13580;SDS011;6861;46.170;7.222;2023-06-22T09:27:40;16.92;;;5.00;;
13580;SDS011;6861;46.170;7.222;2023-06-22T09:30:08;13.18;;;5.38;;
13580;SDS011;6861;46.170;7.222;2023-06-22T09:32:37;14.27;;;5.65;;
13580;SDS011;6861;46.170;7.222;2023-06-22T09:35:05;19.30;;;5.88;;
13580;SDS011;6861;46.170;7.222;2023-06-22T09:37:36;16.30;;;5.57;;
13580;SDS011;6861;46.170;7.222;2023-06-22T09:40:05;17.25;;;5.53;;
13580;SDS011;6861;46.170;7.222;2023-06-22T09:42:37;15.45;;;5.70;;
13580;SDS011;6861;46.170;7.222;2023-06-22T09:45:08;13.55;;;5.47;;
13580;SDS011;6861;46.170;7.222;2023-06-22T09:47:36;13.40;;;5.65;;
13580;SDS011;6861;46.170;7.222;2023-06-22T09:50:05;15.82;;;5.72;;
13580;SDS011;6861;46.170;7.222;2023-06-22T09:52:34;14.00;;;6.05;;
13580;SDS011;6861;46.170;7.222;2023-06-22T09:55:05;15.50;;;5.55;;
13580;SDS011;6861;46.170;7.222;2023-06-22T09:57:34;17.10;;;5.88;;
13580;SDS011;6861;46.170;7.222;2023-06-22T10:00:02;19.23;;;6.13;;
13580;SDS011;6861;46.170;7.222;2023-06-22T10:02:36;16.38;;;5.80;;
13580;SDS011;6861;46.170;7.222;2023-06-22T10:05:05;17.10;;;5.88;;
13580;SDS011;6861;46.170;7.222;2023-06-22T10:07:34;16.17;;;5.70;;
13580;SDS011;6861;46.170;7.222;2023-06-22T10:10:07;15.60;;;5.78;;
13580;SDS011;6861;46.170;7.222;2023-06-22T10:12:35;13.15;;;5.63;;
13580;SDS011;6861;46.170;7.222;2023-06-22T10:15:04;16.10;;;5.32;;
13580;SDS011;6861;46.170;7.222;2023-06-22T10:17:33;15.18;;;5.65;;
13580;SDS011;6861;46.170;7.222;2023-06-22T10:20:03;17.95;;;5.82;;
13580;SDS011;6861;46.170;7.222;2023-06-22T10:22:38;13.05;;;6.07;;
13580;SDS011;6861;46.170;7.222;2023-06-22T10:25:07;17.52;;;6.10;;
13580;SDS011;6861;46.170;7.222;2023-06-22T10:27:36;17.70;;;5.88;;
13580;SDS011;6861;46.170;7.222;2023-06-22T10:30:06;22.83;;;6.25;;
13580;SDS011;6861;46.170;7.222;2023-06-22T10:32:35;15.38;;;6.35;;
13580;SDS011;6861;46.170;7.222;2023-06-22T10:35:07;16.25;;;5.30;;
13580;SDS011;6861;46.170;7.222;2023-06-22T10:37:37;19.38;;;5.15;;
13580;SDS011;6861;46.170;7.222;2023-06-22T10:40:05;18.95;;;5.60;;
13580;SDS011;6861;46.170;7.222;2023-06-22T10:42:35;13.45;;;5.55;;
13580;SDS011;6861;46.170;7.222;2023-06-22T10:45:03;17.00;;;6.20;;
13580;SDS011;6861;46.170;7.222;2023-06-22T10:47:32;13.27;;;5.40;;
13580;SDS011;6861;46.170;7.222;2023-06-22T10:50:01;16.60;;;6.38;;
13580;SDS011;6861;46.170;7.222;2023-06-22T10:52:30;13.85;;;5.60;;
13580;SDS011;6861;46.170;7.222;2023-06-22T10:54:59;17.70;;;6.20;;
13580;SDS011;6861;46.170;7.222;2023-06-22T10:57:27;17.88;;;6.20;;
13580;SDS011;6861;46.170;7.222;2023-06-22T10:59:55;15.38;;;5.85;;
13580;SDS011;6861;46.170;7.222;2023-06-22T11:02:23;20.13;;;6.45;;
13580;SDS011;6861;46.170;7.222;2023-06-22T11:04:52;14.85;;;6.10;;
13580;SDS011;6861;46.170;7.222;2023-06-22T11:07:20;17.38;;;6.28;;
13580;SDS011;6861;46.170;7.222;2023-06-22T11:09:59;12.50;;;5.50;;
13580;SDS011;6861;46.170;7.222;2023-06-22T11:12:27;13.45;;;6.13;;
13580;SDS011;6861;46.170;7.222;2023-06-22T11:14:55;12.60;;;5.60;;
13580;SDS011;6861;46.170;7.222;2023-06-22T11:17:25;14.95;;;5.60;;
13580;SDS011;6861;46.170;7.222;2023-06-22T11:19:53;16.35;;;5.38;;
13580;SDS011;6861;46.170;7.222;2023-06-22T11:22:21;16.63;;;6.20;;
13580;SDS011;6861;46.170;7.222;2023-06-22T11:24:49;15.38;;;5.85;;
13580;SDS011;6861;46.170;7.222;2023-06-22T11:27:19;18.45;;;5.53;;
13580;SDS011;6861;46.170;7.222;2023-06-22T11:29:47;14.50;;;5.55;;
13580;SDS011;6861;46.170;7.222;2023-06-22T11:32:16;13.60;;;4.22;;
13580;SDS011;6861;46.170;7.222;2023-06-22T11:34:44;11.52;;;4.07;;
13580;SDS011;6861;46.170;7.222;2023-06-22T11:37:12;12.90;;;4.90;;
13580;SDS011;6861;46.170;7.222;2023-06-22T11:39:41;12.45;;;4.80;;
13580;SDS011;6861;46.170;7.222;2023-06-22T11:42:20;16.20;;;4.88;;
13580;SDS011;6861;46.170;7.222;2023-06-22T11:44:50;15.18;;;4.68;;
13580;SDS011;6861;46.170;7.222;2023-06-22T11:47:18;15.63;;;4.65;;
13580;SDS011;6861;46.170;7.222;2023-06-22T11:49:46;21.58;;;5.28;;
13580;SDS011;6861;46.170;7.222;2023-06-22T11:52:14;11.20;;;4.38;;
13580;SDS011;6861;46.170;7.222;2023-06-22T11:54:44;14.15;;;4.30;;
13580;SDS011;6861;46.170;7.222;2023-06-22T11:57:12;10.88;;;4.75;;
13580;SDS011;6861;46.170;7.222;2023-06-22T11:59:42;15.27;;;4.80;;
13580;SDS011;6861;46.170;7.222;2023-06-22T12:02:10;11.88;;;4.50;;
13580;SDS011;6861;46.170;7.222;2023-06-22T12:04:38;12.38;;;3.80;;
13580;SDS011;6861;46.170;7.222;2023-06-22T12:07:06;14.20;;;4.10;;
13580;SDS011;6861;46.170;7.222;2023-06-22T12:09:35;13.65;;;5.00;;
13580;SDS011;6861;46.170;7.222;2023-06-22T12:12:03;15.82;;;5.25;;
13580;SDS011;6861;46.170;7.222;2023-06-22T12:14:32;16.50;;;4.70;;
13580;SDS011;6861;46.170;7.222;2023-06-22T12:17:02;13.95;;;4.72;;
13580;SDS011;6861;46.170;7.222;2023-06-22T12:19:31;10.57;;;4.50;;
13580;SDS011;6861;46.170;7.222;2023-06-22T12:21:59;11.73;;;4.32;;
13580;SDS011;6861;46.170;7.222;2023-06-22T12:24:27;12.45;;;4.72;;
13580;SDS011;6861;46.170;7.222;2023-06-22T12:26:55;11.63;;;4.13;;
13580;SDS011;6861;46.170;7.222;2023-06-22T12:29:24;13.30;;;4.80;;
13580;SDS011;6861;46.170;7.222;2023-06-22T12:31:52;14.75;;;4.68;;
13580;SDS011;6861;46.170;7.222;2023-06-22T12:34:21;11.35;;;4.72;;
13580;SDS011;6861;46.170;7.222;2023-06-22T12:36:50;12.18;;;4.20;;
13580;SDS011;6861;46.170;7.222;2023-06-22T12:39:20;12.85;;;4.05;;
13580;SDS011;6861;46.170;7.222;2023-06-22T12:41:48;10.90;;;3.20;;
13580;SDS011;6861;46.170;7.222;2023-06-22T12:44:17;8.95;;;3.53;;
13580;SDS011;6861;46.170;7.222;2023-06-22T12:46:45;11.18;;;3.53;;
13580;SDS011;6861;46.170;7.222;2023-06-22T12:49:13;10.98;;;3.55;;
13580;SDS011;6861;46.170;7.222;2023-06-22T12:51:43;10.60;;;3.20;;
13580;SDS011;6861;46.170;7.222;2023-06-22T12:54:12;13.50;;;3.40;;
13580;SDS011;6861;46.170;7.222;2023-06-22T12:56:40;8.02;;;2.90;;
13580;SDS011;6861;46.170;7.222;2023-06-22T12:59:10;10.48;;;3.10;;
13580;SDS011;6861;46.170;7.222;2023-06-22T13:01:38;12.15;;;3.08;;
13580;SDS011;6861;46.170;7.222;2023-06-22T13:04:06;6.25;;;2.53;;
13580;SDS011;6861;46.170;7.222;2023-06-22T13:06:37;7.80;;;3.05;;
13580;SDS011;6861;46.170;7.222;2023-06-22T13:09:07;8.70;;;3.03;;
13580;SDS011;6861;46.170;7.222;2023-06-22T13:11:46;9.07;;;2.90;;
13580;SDS011;6861;46.170;7.222;2023-06-22T13:14:14;6.43;;;2.58;;
13580;SDS011;6861;46.170;7.222;2023-06-22T13:16:43;8.68;;;2.70;;
13580;SDS011;6861;46.170;7.222;2023-06-22T13:19:11;9.40;;;3.28;;
13580;SDS011;6861;46.170;7.222;2023-06-22T13:21:40;11.35;;;3.08;;
13580;SDS011;6861;46.170;7.222;2023-06-22T13:24:10;9.52;;;2.70;;
13580;SDS011;6861;46.170;7.222;2023-06-22T13:26:38;10.93;;;3.13;;
13580;SDS011;6861;46.170;7.222;2023-06-22T13:29:06;12.68;;;3.28;;
13580;SDS011;6861;46.170;7.222;2023-06-22T13:31:35;10.13;;;2.90;;
13580;SDS011;6861;46.170;7.222;2023-06-22T13:34:03;10.07;;;3.35;;
13580;SDS011;6861;46.170;7.222;2023-06-22T13:36:31;10.65;;;2.90;;
13580;SDS011;6861;46.170;7.222;2023-06-22T13:38:59;10.75;;;3.65;;
13580;SDS011;6861;46.170;7.222;2023-06-22T13:41:29;11.77;;;3.58;;
13580;SDS011;6861;46.170;7.222;2023-06-22T13:43:57;10.88;;;3.50;;
13580;SDS011;6861;46.170;7.222;2023-06-22T13:46:26;13.00;;;3.10;;
13580;SDS011;6861;46.170;7.222;2023-06-22T13:48:54;7.45;;;3.20;;
13580;SDS011;6861;46.170;7.222;2023-06-22T13:51:22;12.80;;;3.97;;
13580;SDS011;6861;46.170;7.222;2023-06-22T13:53:51;12.68;;;3.03;;
13580;SDS011;6861;46.170;7.222;2023-06-22T13:56:19;8.30;;;3.92;;
13580;SDS011;6861;46.170;7.222;2023-06-22T13:58:49;13.38;;;3.47;;
13580;SDS011;6861;46.170;7.222;2023-06-22T14:01:18;17.23;;;3.72;;
13580;SDS011;6861;46.170;7.222;2023-06-22T14:03:46;22.40;;;4.00;;
13580;SDS011;6861;46.170;7.222;2023-06-22T14:06:15;10.07;;;3.75;;
13580;SDS011;6861;46.170;7.222;2023-06-22T14:08:44;7.95;;;3.38;;
13580;SDS011;6861;46.170;7.222;2023-06-22T14:11:12;11.52;;;3.38;;
13580;SDS011;6861;46.170;7.222;2023-06-22T14:13:41;8.63;;;3.08;;
13580;SDS011;6861;46.170;7.222;2023-06-22T14:16:11;7.22;;;2.38;;
13580;SDS011;6861;46.170;7.222;2023-06-22T14:18:39;8.98;;;2.70;;
13580;SDS011;6861;46.170;7.222;2023-06-22T14:21:07;5.25;;;2.25;;
13580;SDS011;6861;46.170;7.222;2023-06-22T14:23:35;5.97;;;2.80;;
13580;SDS011;6861;46.170;7.222;2023-06-22T14:26:04;4.60;;;2.22;;
13580;SDS011;6861;46.170;7.222;2023-06-22T14:28:33;4.80;;;2.25;;
13580;SDS011;6861;46.170;7.222;2023-06-22T14:31:01;6.85;;;2.22;;
13580;SDS011;6861;46.170;7.222;2023-06-22T14:33:31;5.00;;;1.80;;
13580;SDS011;6861;46.170;7.222;2023-06-22T14:35:59;7.47;;;2.30;;
13580;SDS011;6861;46.170;7.222;2023-06-22T14:38:27;3.88;;;1.80;;
13580;SDS011;6861;46.170;7.222;2023-06-22T14:40:55;7.03;;;1.60;;
13580;SDS011;6861;46.170;7.222;2023-06-22T14:43:43;5.40;;;1.80;;
13580;SDS011;6861;46.170;7.222;2023-06-22T14:46:12;6.18;;;1.77;;
13580;SDS011;6861;46.170;7.222;2023-06-22T14:48:43;3.03;;;1.40;;
13580;SDS011;6861;46.170;7.222;2023-06-22T14:51:12;5.72;;;1.48;;
13580;SDS011;6861;46.170;7.222;2023-06-22T14:53:43;3.13;;;1.30;;
13580;SDS011;6861;46.170;7.222;2023-06-22T14:56:12;4.75;;;1.73;;
13580;SDS011;6861;46.170;7.222;2023-06-22T14:58:42;7.97;;;2.70;;
13580;SDS011;6861;46.170;7.222;2023-06-22T15:01:13;8.38;;;2.20;;
13580;SDS011;6861;46.170;7.222;2023-06-22T15:03:41;6.03;;;2.22;;